sensor_id;sensor_type;location;lat;lon;timestamp;P1;durP1;ratioP1;P2;durP2;ratioP2
13683;SDS011;6914;53.552;9.908;2023-04-01T00:01:07;15.40;;;8.87;;
13683;SDS011;6914;53.552;9.908;2023-04-01T00:03:34;15.37;;;8.47;;
13683;SDS011;6914;53.552;9.908;2023-04-01T00:06:03;12.73;;;8.60;;
13683;SDS011;6914;53.552;9.908;2023-04-01T00:08:30;16.33;;;9.10;;
13683;SDS011;6914;53.552;9.908;2023-04-01T00:10:57;13.93;;;9.47;;
13683;SDS011;6914;53.552;9.908;2023-04-01T00:13:25;9.40;;;8.50;;
13683;SDS011;6914;53.552;9.908;2023-04-01T00:15:52;13.80;;;7.90;;
13683;SDS011;6914;53.552;9.908;2023-04-01T00:18:20;15.47;;;8.87;;
13683;SDS011;6914;53.552;9.908;2023-04-01T00:20:48;16.53;;;9.13;;
13683;SDS011;6914;53.552;9.908;2023-04-01T00:23:18;16.57;;;8.50;;
13683;SDS011;6914;53.552;9.908;2023-04-01T00:25:46;11.10;;;9.07;;
13683;SDS011;6914;53.552;9.908;2023-04-01T00:28:14;12.20;;;8.20;;
13683;SDS011;6914;53.552;9.908;2023-04-01T00:30:41;10.37;;;8.47;;
13683;SDS011;6914;53.552;9.908;2023-04-01T00:33:08;19.23;;;8.63;;
13683;SDS011;6914;53.552;9.908;2023-04-01T00:35:36;12.43;;;7.97;;
13683;SDS011;6914;53.552;9.908;2023-04-01T00:38:03;13.30;;;8.67;;
13683;SDS011;6914;53.552;9.908;2023-04-01T00:40:34;23.30;;;8.53;;
13683;SDS011;6914;53.552;9.908;2023-04-01T00:43:02;21.83;;;10.37;;
13683;SDS011;6914;53.552;9.908;2023-04-01T00:45:35;16.27;;;9.63;;
13683;SDS011;6914;53.552;9.908;2023-04-01T00:48:05;11.40;;;8.60;;
13683;SDS011;6914;53.552;9.908;2023-04-01T00:50:35;20.10;;;9.60;;
13683;SDS011;6914;53.552;9.908;2023-04-01T00:53:05;23.63;;;9.47;;
13683;SDS011;6914;53.552;9.908;2023-04-01T00:55:35;26.43;;;9.27;;
13683;SDS011;6914;53.552;9.908;2023-04-01T00:58:05;12.20;;;9.07;;
13683;SDS011;6914;53.552;9.908;2023-04-01T01:00:37;12.00;;;8.70;;
13683;SDS011;6914;53.552;9.908;2023-04-01T01:03:04;21.77;;;10.47;;
13683;SDS011;6914;53.552;9.908;2023-04-01T01:05:35;19.20;;;9.33;;
13683;SDS011;6914;53.552;9.908;2023-04-01T01:08:15;10.87;;;9.40;;
13683;SDS011;6914;53.552;9.908;2023-04-01T01:10:50;15.87;;;8.73;;
13683;SDS011;6914;53.552;9.908;2023-04-01T01:13:17;16.50;;;10.70;;
13683;SDS011;6914;53.552;9.908;2023-04-01T01:15:51;22.23;;;8.47;;
13683;SDS011;6914;53.552;9.908;2023-04-01T01:18:26;15.17;;;8.87;;
13683;SDS011;6914;53.552;9.908;2023-04-01T01:24:17;15.10;;;8.77;;
13683;SDS011;6914;53.552;9.908;2023-04-01T01:27:03;15.27;;;8.70;;
13683;SDS011;6914;53.552;9.908;2023-04-01T01:29:36;19.77;;;9.67;;
13683;SDS011;6914;53.552;9.908;2023-04-01T01:32:11;13.47;;;9.13;;
13683;SDS011;6914;53.552;9.908;2023-04-01T01:34:45;21.67;;;9.07;;
13683;SDS011;6914;53.552;9.908;2023-04-01T01:37:20;18.00;;;8.50;;
13683;SDS011;6914;53.552;9.908;2023-04-01T01:39:51;17.07;;;8.90;;
13683;SDS011;6914;53.552;9.908;2023-04-01T01:42:21;14.33;;;9.23;;
13683;SDS011;6914;53.552;9.908;2023-04-01T01:44:52;10.10;;;8.13;;
13683;SDS011;6914;53.552;9.908;2023-04-01T01:47:22;16.43;;;7.57;;
13683;SDS011;6914;53.552;9.908;2023-04-01T01:49:49;18.03;;;8.40;;
13683;SDS011;6914;53.552;9.908;2023-04-01T01:52:19;13.13;;;7.83;;
13683;SDS011;6914;53.552;9.908;2023-04-01T01:54:47;15.53;;;7.80;;
13683;SDS011;6914;53.552;9.908;2023-04-01T01:57:15;13.73;;;7.53;;
13683;SDS011;6914;53.552;9.908;2023-04-01T01:59:45;9.53;;;7.10;;
13683;SDS011;6914;53.552;9.908;2023-04-01T02:02:15;12.23;;;7.83;;
13683;SDS011;6914;53.552;9.908;2023-04-01T02:04:43;13.90;;;7.50;;
13683;SDS011;6914;53.552;9.908;2023-04-01T02:07:14;14.07;;;8.17;;
13683;SDS011;6914;53.552;9.908;2023-04-01T02:09:47;17.40;;;8.50;;
13683;SDS011;6914;53.552;9.908;2023-04-01T02:12:15;21.10;;;8.57;;
13683;SDS011;6914;53.552;9.908;2023-04-01T02:14:45;19.03;;;8.70;;
13683;SDS011;6914;53.552;9.908;2023-04-01T02:17:16;11.47;;;7.50;;
13683;SDS011;6914;53.552;9.908;2023-04-01T02:19:46;14.50;;;8.63;;
13683;SDS011;6914;53.552;9.908;2023-04-01T02:22:16;19.30;;;8.17;;
13683;SDS011;6914;53.552;9.908;2023-04-01T02:24:49;14.73;;;9.30;;
13683;SDS011;6914;53.552;9.908;2023-04-01T02:27:18;25.93;;;9.00;;
13683;SDS011;6914;53.552;9.908;2023-04-01T02:29:48;11.47;;;8.17;;
13683;SDS011;6914;53.552;9.908;2023-04-01T02:32:16;20.90;;;9.20;;
13683;SDS011;6914;53.552;9.908;2023-04-01T02:34:44;18.50;;;9.50;;
13683;SDS011;6914;53.552;9.908;2023-04-01T02:37:14;12.50;;;9.10;;
13683;SDS011;6914;53.552;9.908;2023-04-01T02:39:42;18.80;;;10.77;;
13683;SDS011;6914;53.552;9.908;2023-04-01T02:42:10;18.43;;;10.03;;
13683;SDS011;6914;53.552;9.908;2023-04-01T02:44:37;13.63;;;9.80;;
13683;SDS011;6914;53.552;9.908;2023-04-01T02:47:04;16.67;;;9.27;;
13683;SDS011;6914;53.552;9.908;2023-04-01T02:49:31;15.50;;;9.00;;
13683;SDS011;6914;53.552;9.908;2023-04-01T02:51:57;13.60;;;10.60;;
13683;SDS011;6914;53.552;9.908;2023-04-01T02:54:24;25.37;;;11.00;;
13683;SDS011;6914;53.552;9.908;2023-04-01T02:56:51;15.33;;;9.50;;
13683;SDS011;6914;53.552;9.908;2023-04-01T02:59:19;12.47;;;9.00;;
13683;SDS011;6914;53.552;9.908;2023-04-01T03:01:47;15.00;;;8.10;;
13683;SDS011;6914;53.552;9.908;2023-04-01T03:04:14;15.87;;;10.50;;
13683;SDS011;6914;53.552;9.908;2023-04-01T03:06:41;12.07;;;10.53;;
13683;SDS011;6914;53.552;9.908;2023-04-01T03:09:07;16.27;;;9.90;;
13683;SDS011;6914;53.552;9.908;2023-04-01T03:11:35;15.60;;;9.63;;
13683;SDS011;6914;53.552;9.908;2023-04-01T03:14:01;17.40;;;9.83;;
13683;SDS011;6914;53.552;9.908;2023-04-01T03:16:30;18.03;;;10.23;;
13683;SDS011;6914;53.552;9.908;2023-04-01T03:18:56;16.33;;;10.10;;
13683;SDS011;6914;53.552;9.908;2023-04-01T03:21:25;11.90;;;10.00;;
13683;SDS011;6914;53.552;9.908;2023-04-01T03:23:52;12.60;;;9.40;;
13683;SDS011;6914;53.552;9.908;2023-04-01T03:26:19;20.97;;;10.40;;
13683;SDS011;6914;53.552;9.908;2023-04-01T03:28:47;12.27;;;9.00;;
13683;SDS011;6914;53.552;9.908;2023-04-01T03:33:48;14.83;;;9.50;;
13683;SDS011;6914;53.552;9.908;2023-04-01T03:36:15;18.30;;;9.60;;
13683;SDS011;6914;53.552;9.908;2023-04-01T03:38:43;16.47;;;10.53;;
13683;SDS011;6914;53.552;9.908;2023-04-01T03:41:11;14.00;;;9.70;;
13683;SDS011;6914;53.552;9.908;2023-04-01T03:43:39;23.50;;;10.70;;
13683;SDS011;6914;53.552;9.908;2023-04-01T03:46:06;18.83;;;10.17;;
13683;SDS011;6914;53.552;9.908;2023-04-01T03:48:33;12.60;;;9.90;;
13683;SDS011;6914;53.552;9.908;2023-04-01T03:51:02;15.63;;;10.20;;
13683;SDS011;6914;53.552;9.908;2023-04-01T03:53:33;15.00;;;10.43;;
13683;SDS011;6914;53.552;9.908;2023-04-01T03:56:03;18.70;;;10.30;;
13683;SDS011;6914;53.552;9.908;2023-04-01T03:58:30;13.53;;;9.83;;
13683;SDS011;6914;53.552;9.908;2023-04-01T04:00:57;22.53;;;11.63;;
13683;SDS011;6914;53.552;9.908;2023-04-01T04:03:24;14.13;;;12.00;;
13683;SDS011;6914;53.552;9.908;2023-04-01T04:05:51;15.57;;;10.33;;
13683;SDS011;6914;53.552;9.908;2023-04-01T04:08:20;14.27;;;10.77;;
13683;SDS011;6914;53.552;9.908;2023-04-01T04:10:47;14.40;;;9.80;;
13683;SDS011;6914;53.552;9.908;2023-04-01T04:13:20;17.00;;;10.93;;
13683;SDS011;6914;53.552;9.908;2023-04-01T04:15:47;14.77;;;9.67;;
13683;SDS011;6914;53.552;9.908;2023-04-01T04:18:15;13.93;;;10.20;;
13683;SDS011;6914;53.552;9.908;2023-04-01T04:20:43;17.70;;;10.33;;
13683;SDS011;6914;53.552;9.908;2023-04-01T04:23:13;12.83;;;10.50;;
13683;SDS011;6914;53.552;9.908;2023-04-01T04:25:41;16.43;;;10.27;;
13683;SDS011;6914;53.552;9.908;2023-04-01T04:28:19;15.57;;;10.33;;
13683;SDS011;6914;53.552;9.908;2023-04-01T04:30:46;24.13;;;11.60;;
13683;SDS011;6914;53.552;9.908;2023-04-01T04:33:14;17.10;;;11.93;;
13683;SDS011;6914;53.552;9.908;2023-04-01T04:35:41;29.40;;;10.97;;
13683;SDS011;6914;53.552;9.908;2023-04-01T04:38:08;20.00;;;10.93;;
13683;SDS011;6914;53.552;9.908;2023-04-01T04:40:35;18.80;;;11.37;;
13683;SDS011;6914;53.552;9.908;2023-04-01T04:43:04;20.53;;;11.50;;
13683;SDS011;6914;53.552;9.908;2023-04-01T04:45:31;21.80;;;11.53;;
13683;SDS011;6914;53.552;9.908;2023-04-01T04:47:58;25.70;;;11.50;;
13683;SDS011;6914;53.552;9.908;2023-04-01T04:50:25;19.13;;;11.10;;
13683;SDS011;6914;53.552;9.908;2023-04-01T04:52:53;19.60;;;10.57;;
13683;SDS011;6914;53.552;9.908;2023-04-01T04:55:20;19.93;;;10.73;;
13683;SDS011;6914;53.552;9.908;2023-04-01T04:57:48;21.33;;;12.20;;
13683;SDS011;6914;53.552;9.908;2023-04-01T05:00:19;17.53;;;11.03;;
13683;SDS011;6914;53.552;9.908;2023-04-01T05:02:46;19.00;;;10.83;;
13683;SDS011;6914;53.552;9.908;2023-04-01T05:05:13;17.87;;;11.80;;
13683;SDS011;6914;53.552;9.908;2023-04-01T05:07:40;18.97;;;12.50;;
13683;SDS011;6914;53.552;9.908;2023-04-01T05:10:07;20.50;;;12.40;;
13683;SDS011;6914;53.552;9.908;2023-04-01T05:12:35;17.93;;;11.40;;
13683;SDS011;6914;53.552;9.908;2023-04-01T05:15:04;18.00;;;11.87;;
13683;SDS011;6914;53.552;9.908;2023-04-01T05:17:32;22.50;;;12.73;;
13683;SDS011;6914;53.552;9.908;2023-04-01T05:19:59;14.27;;;11.27;;
13683;SDS011;6914;53.552;9.908;2023-04-01T05:22:27;20.63;;;12.30;;
13683;SDS011;6914;53.552;9.908;2023-04-01T05:24:54;15.00;;;11.30;;
13683;SDS011;6914;53.552;9.908;2023-04-01T05:27:21;13.53;;;11.00;;
13683;SDS011;6914;53.552;9.908;2023-04-01T05:29:48;17.53;;;11.80;;
13683;SDS011;6914;53.552;9.908;2023-04-01T05:32:16;17.50;;;12.13;;
13683;SDS011;6914;53.552;9.908;2023-04-01T05:34:44;13.37;;;11.10;;
13683;SDS011;6914;53.552;9.908;2023-04-01T05:37:11;25.80;;;12.53;;
13683;SDS011;6914;53.552;9.908;2023-04-01T05:39:38;16.33;;;11.60;;
13683;SDS011;6914;53.552;9.908;2023-04-01T05:42:05;15.73;;;11.80;;
13683;SDS011;6914;53.552;9.908;2023-04-01T05:44:32;13.63;;;10.07;;
13683;SDS011;6914;53.552;9.908;2023-04-01T05:46:59;4.47;;;4.17;;
13683;SDS011;6914;53.552;9.908;2023-04-01T05:49:26;2.30;;;2.20;;
13683;SDS011;6914;53.552;9.908;2023-04-01T05:51:55;1.20;;;1.20;;
13683;SDS011;6914;53.552;9.908;2023-04-01T05:54:22;1.63;;;1.53;;
13683;SDS011;6914;53.552;9.908;2023-04-01T05:56:50;1.87;;;1.77;;
13683;SDS011;6914;53.552;9.908;2023-04-01T05:59:18;1.50;;;1.50;;
13683;SDS011;6914;53.552;9.908;2023-04-01T06:01:45;2.60;;;1.90;;
13683;SDS011;6914;53.552;9.908;2023-04-01T06:04:13;1.73;;;1.50;;
13683;SDS011;6914;53.552;9.908;2023-04-01T06:06:41;1.20;;;1.10;;
13683;SDS011;6914;53.552;9.908;2023-04-01T06:09:13;1.13;;;1.10;;
13683;SDS011;6914;53.552;9.908;2023-04-01T06:11:45;2.07;;;1.80;;
13683;SDS011;6914;53.552;9.908;2023-04-01T06:14:27;1.40;;;1.40;;
13683;SDS011;6914;53.552;9.908;2023-04-01T06:17:05;2.03;;;1.93;;
13683;SDS011;6914;53.552;9.908;2023-04-01T06:19:43;2.57;;;1.90;;
13683;SDS011;6914;53.552;9.908;2023-04-01T06:25:18;1.80;;;1.70;;
13683;SDS011;6914;53.552;9.908;2023-04-01T06:28:07;1.53;;;1.53;;
13683;SDS011;6914;53.552;9.908;2023-04-01T06:30:58;1.87;;;1.77;;
13683;SDS011;6914;53.552;9.908;2023-04-01T06:33:32;2.07;;;1.97;;
13683;SDS011;6914;53.552;9.908;2023-04-01T06:39:17;1.80;;;1.70;;
13683;SDS011;6914;53.552;9.908;2023-04-01T06:44:56;1.60;;;1.50;;
13683;SDS011;6914;53.552;9.908;2023-04-01T06:47:37;1.40;;;1.30;;
13683;SDS011;6914;53.552;9.908;2023-04-01T06:50:15;1.33;;;1.33;;
13683;SDS011;6914;53.552;9.908;2023-04-01T06:52:52;1.83;;;1.23;;
13683;SDS011;6914;53.552;9.908;2023-04-01T06:55:29;1.50;;;1.40;;
13683;SDS011;6914;53.552;9.908;2023-04-01T06:58:04;1.43;;;1.40;;
13683;SDS011;6914;53.552;9.908;2023-04-01T07:00:37;1.60;;;1.50;;
13683;SDS011;6914;53.552;9.908;2023-04-01T07:03:09;2.17;;;1.67;;
13683;SDS011;6914;53.552;9.908;2023-04-01T07:05:43;1.50;;;1.40;;
13683;SDS011;6914;53.552;9.908;2023-04-01T07:08:10;1.90;;;1.67;;
13683;SDS011;6914;53.552;9.908;2023-04-01T07:10:42;1.60;;;1.50;;
13683;SDS011;6914;53.552;9.908;2023-04-01T07:13:15;1.50;;;1.40;;
13683;SDS011;6914;53.552;9.908;2023-04-01T07:15:49;1.10;;;1.00;;
13683;SDS011;6914;53.552;9.908;2023-04-01T07:18:25;0.80;;;0.80;;
13683;SDS011;6914;53.552;9.908;2023-04-01T07:20:59;1.07;;;1.07;;
13683;SDS011;6914;53.552;9.908;2023-04-01T07:23:28;1.10;;;1.10;;
13683;SDS011;6914;53.552;9.908;2023-04-01T07:26:00;1.53;;;1.07;;
13683;SDS011;6914;53.552;9.908;2023-04-01T07:28:34;1.10;;;1.00;;
13683;SDS011;6914;53.552;9.908;2023-04-01T07:31:04;1.03;;;1.03;;
13683;SDS011;6914;53.552;9.908;2023-04-01T07:33:42;1.00;;;1.00;;
13683;SDS011;6914;53.552;9.908;2023-04-01T07:36:13;0.90;;;0.90;;
13683;SDS011;6914;53.552;9.908;2023-04-01T07:38:47;2.30;;;1.90;;
13683;SDS011;6914;53.552;9.908;2023-04-01T07:41:26;1.60;;;1.50;;
13683;SDS011;6914;53.552;9.908;2023-04-01T07:44:02;1.20;;;1.20;;
13683;SDS011;6914;53.552;9.908;2023-04-01T07:46:43;2.80;;;1.30;;
13683;SDS011;6914;53.552;9.908;2023-04-01T07:49:22;1.87;;;1.13;;
13683;SDS011;6914;53.552;9.908;2023-04-01T07:51:56;1.70;;;1.60;;
13683;SDS011;6914;53.552;9.908;2023-04-01T07:54:28;1.10;;;1.07;;
13683;SDS011;6914;53.552;9.908;2023-04-01T07:57:05;1.00;;;1.00;;
13683;SDS011;6914;53.552;9.908;2023-04-01T07:59:41;3.60;;;1.13;;
13683;SDS011;6914;53.552;9.908;2023-04-01T08:02:20;1.20;;;1.20;;
13683;SDS011;6914;53.552;9.908;2023-04-01T08:05:00;0.97;;;0.97;;
13683;SDS011;6914;53.552;9.908;2023-04-01T08:07:34;1.23;;;1.13;;
13683;SDS011;6914;53.552;9.908;2023-04-01T08:10:09;1.10;;;1.00;;
13683;SDS011;6914;53.552;9.908;2023-04-01T08:12:45;1.20;;;1.10;;
13683;SDS011;6914;53.552;9.908;2023-04-01T08:15:23;1.00;;;1.00;;
13683;SDS011;6914;53.552;9.908;2023-04-01T08:17:57;1.20;;;1.20;;
13683;SDS011;6914;53.552;9.908;2023-04-01T08:20:32;1.10;;;1.10;;
13683;SDS011;6914;53.552;9.908;2023-04-01T08:23:05;2.00;;;1.50;;
13683;SDS011;6914;53.552;9.908;2023-04-01T08:25:38;1.17;;;1.17;;
13683;SDS011;6914;53.552;9.908;2023-04-01T08:28:11;7.70;;;1.20;;
13683;SDS011;6914;53.552;9.908;2023-04-01T08:30:45;2.10;;;1.07;;
13683;SDS011;6914;53.552;9.908;2023-04-01T08:33:18;0.83;;;0.83;;
13683;SDS011;6914;53.552;9.908;2023-04-01T08:35:51;0.90;;;0.90;;
13683;SDS011;6914;53.552;9.908;2023-04-01T08:38:24;1.10;;;1.07;;
13683;SDS011;6914;53.552;9.908;2023-04-01T08:41:00;1.40;;;1.30;;
13683;SDS011;6914;53.552;9.908;2023-04-01T08:46:53;2.80;;;0.90;;
13683;SDS011;6914;53.552;9.908;2023-04-01T08:49:43;0.97;;;0.97;;
13683;SDS011;6914;53.552;9.908;2023-04-01T08:52:30;0.77;;;0.77;;
13683;SDS011;6914;53.552;9.908;2023-04-01T08:58:08;0.70;;;0.70;;
13683;SDS011;6914;53.552;9.908;2023-04-01T09:01:11;0.70;;;0.70;;
13683;SDS011;6914;53.552;9.908;2023-04-01T09:06:47;0.70;;;0.70;;
13683;SDS011;6914;53.552;9.908;2023-04-01T09:09:35;1.00;;;1.00;;
13683;SDS011;6914;53.552;9.908;2023-04-01T09:12:31;0.90;;;0.90;;
13683;SDS011;6914;53.552;9.908;2023-04-01T09:18:28;0.93;;;0.93;;
13683;SDS011;6914;53.552;9.908;2023-04-01T09:21:24;1.20;;;1.10;;
13683;SDS011;6914;53.552;9.908;2023-04-01T09:24:13;2.10;;;1.20;;
13683;SDS011;6914;53.552;9.908;2023-04-01T09:26:59;0.60;;;0.60;;
13683;SDS011;6914;53.552;9.908;2023-04-01T09:29:48;1.20;;;1.10;;
13683;SDS011;6914;53.552;9.908;2023-04-01T09:32:39;1.10;;;1.10;;
13683;SDS011;6914;53.552;9.908;2023-04-01T09:35:20;1.07;;;0.97;;
13683;SDS011;6914;53.552;9.908;2023-04-01T09:37:53;0.77;;;0.77;;
13683;SDS011;6914;53.552;9.908;2023-04-01T09:40:37;1.30;;;1.27;;
13683;SDS011;6914;53.552;9.908;2023-04-01T09:43:15;13.43;;;1.20;;
13683;SDS011;6914;53.552;9.908;2023-04-01T09:45:53;1.17;;;1.10;;
13683;SDS011;6914;53.552;9.908;2023-04-01T09:51:37;5.20;;;1.13;;
13683;SDS011;6914;53.552;9.908;2023-04-01T09:54:13;1.00;;;1.00;;
13683;SDS011;6914;53.552;9.908;2023-04-01T10:00:22;1.27;;;1.00;;
13683;SDS011;6914;53.552;9.908;2023-04-01T10:09:42;1.00;;;0.80;;
13683;SDS011;6914;53.552;9.908;2023-04-01T10:15:42;4.83;;;0.77;;
13683;SDS011;6914;53.552;9.908;2023-04-01T10:18:34;1.23;;;0.80;;
13683;SDS011;6914;53.552;9.908;2023-04-01T10:21:22;2.30;;;0.70;;
13683;SDS011;6914;53.552;9.908;2023-04-01T10:27:05;1.10;;;1.00;;
13683;SDS011;6914;53.552;9.908;2023-04-01T10:30:05;0.70;;;0.70;;
13683;SDS011;6914;53.552;9.908;2023-04-01T10:33:15;0.90;;;0.80;;
13683;SDS011;6914;53.552;9.908;2023-04-01T10:51:17;1.00;;;1.00;;
13683;SDS011;6914;53.552;9.908;2023-04-01T10:54:20;0.87;;;0.87;;
13683;SDS011;6914;53.552;9.908;2023-04-01T10:57:28;0.83;;;0.70;;
13683;SDS011;6914;53.552;9.908;2023-04-01T11:00:18;0.60;;;0.60;;
13683;SDS011;6914;53.552;9.908;2023-04-01T11:03:43;0.63;;;0.63;;
13683;SDS011;6914;53.552;9.908;2023-04-01T11:06:43;0.60;;;0.60;;
13683;SDS011;6914;53.552;9.908;2023-04-01T11:09:44;0.80;;;0.80;;
13683;SDS011;6914;53.552;9.908;2023-04-01T11:12:43;0.90;;;0.90;;
13683;SDS011;6914;53.552;9.908;2023-04-01T11:15:31;0.80;;;0.80;;
13683;SDS011;6914;53.552;9.908;2023-04-01T11:18:24;1.23;;;0.90;;
13683;SDS011;6914;53.552;9.908;2023-04-01T11:27:20;1.13;;;1.13;;
13683;SDS011;6914;53.552;9.908;2023-04-01T11:30:12;1.00;;;1.00;;
13683;SDS011;6914;53.552;9.908;2023-04-01T11:32:59;0.67;;;0.67;;
13683;SDS011;6914;53.552;9.908;2023-04-01T11:35:42;1.30;;;1.30;;
13683;SDS011;6914;53.552;9.908;2023-04-01T11:38:30;1.13;;;1.13;;
13683;SDS011;6914;53.552;9.908;2023-04-01T11:41:10;1.60;;;1.50;;
13683;SDS011;6914;53.552;9.908;2023-04-01T11:43:54;1.87;;;1.77;;
13683;SDS011;6914;53.552;9.908;2023-04-01T11:46:37;1.23;;;1.10;;
13683;SDS011;6914;53.552;9.908;2023-04-01T11:49:16;1.27;;;1.17;;
13683;SDS011;6914;53.552;9.908;2023-04-01T11:52:01;1.67;;;1.60;;
13683;SDS011;6914;53.552;9.908;2023-04-01T11:55:02;3.23;;;1.67;;
13683;SDS011;6914;53.552;9.908;2023-04-01T11:57:51;1.57;;;1.57;;
13683;SDS011;6914;53.552;9.908;2023-04-01T12:00:49;1.90;;;1.80;;
13683;SDS011;6914;53.552;9.908;2023-04-01T12:03:42;2.80;;;2.60;;
13683;SDS011;6914;53.552;9.908;2023-04-01T12:06:21;2.20;;;2.10;;
13683;SDS011;6914;53.552;9.908;2023-04-01T12:08:59;3.00;;;2.90;;
13683;SDS011;6914;53.552;9.908;2023-04-01T12:11:32;3.00;;;2.80;;
13683;SDS011;6914;53.552;9.908;2023-04-01T12:14:05;3.97;;;3.23;;
13683;SDS011;6914;53.552;9.908;2023-04-01T12:16:42;3.70;;;2.87;;
13683;SDS011;6914;53.552;9.908;2023-04-01T12:19:23;4.13;;;3.70;;
13683;SDS011;6914;53.552;9.908;2023-04-01T12:22:02;3.57;;;3.30;;
13683;SDS011;6914;53.552;9.908;2023-04-01T12:24:46;4.20;;;3.80;;
13683;SDS011;6914;53.552;9.908;2023-04-01T12:27:18;4.77;;;4.37;;
13683;SDS011;6914;53.552;9.908;2023-04-01T12:33:06;3.90;;;3.70;;
13683;SDS011;6914;53.552;9.908;2023-04-01T12:35:47;4.63;;;3.90;;
13683;SDS011;6914;53.552;9.908;2023-04-01T12:38:25;4.50;;;4.10;;
13683;SDS011;6914;53.552;9.908;2023-04-01T12:41:13;4.50;;;3.63;;
13683;SDS011;6914;53.552;9.908;2023-04-01T12:46:54;4.40;;;4.10;;
13683;SDS011;6914;53.552;9.908;2023-04-01T12:49:44;4.17;;;3.93;;
13683;SDS011;6914;53.552;9.908;2023-04-01T12:52:25;4.03;;;3.63;;
13683;SDS011;6914;53.552;9.908;2023-04-01T12:55:12;5.27;;;4.30;;
13683;SDS011;6914;53.552;9.908;2023-04-01T13:00:59;4.40;;;4.20;;
13683;SDS011;6914;53.552;9.908;2023-04-01T13:03:41;4.27;;;3.80;;
13683;SDS011;6914;53.552;9.908;2023-04-01T13:09:17;4.80;;;4.30;;
13683;SDS011;6914;53.552;9.908;2023-04-01T13:17:41;3.53;;;2.80;;
13683;SDS011;6914;53.552;9.908;2023-04-01T13:20:16;3.70;;;3.50;;
13683;SDS011;6914;53.552;9.908;2023-04-01T13:22:54;3.00;;;2.87;;
13683;SDS011;6914;53.552;9.908;2023-04-01T13:25:31;3.87;;;3.30;;
13683;SDS011;6914;53.552;9.908;2023-04-01T13:28:06;4.33;;;3.20;;
13683;SDS011;6914;53.552;9.908;2023-04-01T13:30:44;5.97;;;3.27;;
13683;SDS011;6914;53.552;9.908;2023-04-01T13:33:23;7.00;;;3.33;;
13683;SDS011;6914;53.552;9.908;2023-04-01T13:36:00;3.40;;;3.10;;
13683;SDS011;6914;53.552;9.908;2023-04-01T13:38:44;4.70;;;3.30;;
13683;SDS011;6914;53.552;9.908;2023-04-01T13:41:25;4.60;;;3.43;;
13683;SDS011;6914;53.552;9.908;2023-04-01T13:44:06;5.30;;;3.10;;
13683;SDS011;6914;53.552;9.908;2023-04-01T13:49:48;4.60;;;3.27;;
13683;SDS011;6914;53.552;9.908;2023-04-01T13:52:46;4.60;;;3.33;;
13683;SDS011;6914;53.552;9.908;2023-04-01T13:55:29;4.03;;;3.70;;
13683;SDS011;6914;53.552;9.908;2023-04-01T13:58:20;4.63;;;4.27;;
13683;SDS011;6914;53.552;9.908;2023-04-01T14:01:06;6.50;;;3.93;;
13683;SDS011;6914;53.552;9.908;2023-04-01T14:03:51;6.77;;;4.10;;
13683;SDS011;6914;53.552;9.908;2023-04-01T14:06:31;7.00;;;3.53;;
13683;SDS011;6914;53.552;9.908;2023-04-01T14:09:10;4.37;;;3.50;;
13683;SDS011;6914;53.552;9.908;2023-04-01T14:11:50;6.17;;;4.73;;
13683;SDS011;6914;53.552;9.908;2023-04-01T14:14:26;4.30;;;4.10;;
13683;SDS011;6914;53.552;9.908;2023-04-01T14:20:03;11.63;;;3.80;;
13683;SDS011;6914;53.552;9.908;2023-04-01T14:22:48;5.00;;;4.10;;
13683;SDS011;6914;53.552;9.908;2023-04-01T14:25:43;5.07;;;4.57;;
13683;SDS011;6914;53.552;9.908;2023-04-01T14:28:31;4.07;;;3.73;;
13683;SDS011;6914;53.552;9.908;2023-04-01T14:33:51;5.00;;;4.13;;
13683;SDS011;6914;53.552;9.908;2023-04-01T14:36:37;5.00;;;4.50;;
13683;SDS011;6914;53.552;9.908;2023-04-01T14:39:22;5.33;;;4.67;;
13683;SDS011;6914;53.552;9.908;2023-04-01T14:42:06;6.70;;;4.70;;
13683;SDS011;6914;53.552;9.908;2023-04-01T14:44:57;7.47;;;5.23;;
13683;SDS011;6914;53.552;9.908;2023-04-01T14:47:43;5.40;;;4.40;;
13683;SDS011;6914;53.552;9.908;2023-04-01T14:50:14;10.80;;;4.27;;
13683;SDS011;6914;53.552;9.908;2023-04-01T14:52:46;4.60;;;4.20;;
13683;SDS011;6914;53.552;9.908;2023-04-01T14:55:31;8.23;;;4.80;;
13683;SDS011;6914;53.552;9.908;2023-04-01T14:58:04;4.70;;;4.40;;
13683;SDS011;6914;53.552;9.908;2023-04-01T15:00:41;5.57;;;4.53;;
13683;SDS011;6914;53.552;9.908;2023-04-01T15:03:15;4.40;;;4.00;;
13683;SDS011;6914;53.552;9.908;2023-04-01T15:05:49;8.20;;;4.17;;
13683;SDS011;6914;53.552;9.908;2023-04-01T15:08:22;4.57;;;4.23;;
13683;SDS011;6914;53.552;9.908;2023-04-01T15:13:55;4.63;;;4.20;;
13683;SDS011;6914;53.552;9.908;2023-04-01T15:16:40;4.37;;;3.83;;
13683;SDS011;6914;53.552;9.908;2023-04-01T15:19:15;4.40;;;3.97;;
13683;SDS011;6914;53.552;9.908;2023-04-01T15:21:50;6.77;;;4.23;;
13683;SDS011;6914;53.552;9.908;2023-04-01T15:24:43;6.30;;;5.43;;
13683;SDS011;6914;53.552;9.908;2023-04-01T15:27:20;9.60;;;5.97;;
13683;SDS011;6914;53.552;9.908;2023-04-01T15:30:02;6.77;;;5.10;;
13683;SDS011;6914;53.552;9.908;2023-04-01T15:32:58;5.93;;;4.97;;
13683;SDS011;6914;53.552;9.908;2023-04-01T15:35:36;6.20;;;5.00;;
13683;SDS011;6914;53.552;9.908;2023-04-01T15:38:11;8.40;;;5.70;;
13683;SDS011;6914;53.552;9.908;2023-04-01T15:40:56;8.70;;;5.93;;
13683;SDS011;6914;53.552;9.908;2023-04-01T15:43:31;6.33;;;5.67;;
13683;SDS011;6914;53.552;9.908;2023-04-01T15:49:03;7.70;;;5.70;;
13683;SDS011;6914;53.552;9.908;2023-04-01T15:51:53;6.60;;;6.00;;
13683;SDS011;6914;53.552;9.908;2023-04-01T15:54:32;8.67;;;6.60;;
13683;SDS011;6914;53.552;9.908;2023-04-01T15:57:27;18.07;;;7.80;;
13683;SDS011;6914;53.552;9.908;2023-04-01T16:00:06;14.10;;;7.63;;
13683;SDS011;6914;53.552;9.908;2023-04-01T16:02:42;8.30;;;7.50;;
13683;SDS011;6914;53.552;9.908;2023-04-01T16:05:21;15.67;;;7.17;;
13683;SDS011;6914;53.552;9.908;2023-04-01T16:08:03;8.50;;;7.70;;
13683;SDS011;6914;53.552;9.908;2023-04-01T16:10:44;16.93;;;7.20;;
13683;SDS011;6914;53.552;9.908;2023-04-01T16:13:35;17.50;;;7.00;;
13683;SDS011;6914;53.552;9.908;2023-04-01T16:16:14;9.53;;;7.83;;
13683;SDS011;6914;53.552;9.908;2023-04-01T16:19:03;8.27;;;6.97;;
13683;SDS011;6914;53.552;9.908;2023-04-01T16:21:59;10.90;;;8.07;;
13683;SDS011;6914;53.552;9.908;2023-04-01T16:24:33;15.90;;;7.17;;
13683;SDS011;6914;53.552;9.908;2023-04-01T16:27:05;11.87;;;7.83;;
13683;SDS011;6914;53.552;9.908;2023-04-01T16:29:40;12.60;;;7.67;;
13683;SDS011;6914;53.552;9.908;2023-04-01T16:32:23;15.27;;;6.97;;
13683;SDS011;6914;53.552;9.908;2023-04-01T16:35:10;13.67;;;7.80;;
13683;SDS011;6914;53.552;9.908;2023-04-01T16:37:47;7.00;;;6.20;;
13683;SDS011;6914;53.552;9.908;2023-04-01T16:40:22;12.73;;;7.00;;
13683;SDS011;6914;53.552;9.908;2023-04-01T16:43:04;12.63;;;6.67;;
13683;SDS011;6914;53.552;9.908;2023-04-01T16:45:39;9.73;;;6.80;;
13683;SDS011;6914;53.552;9.908;2023-04-01T16:48:11;12.30;;;6.93;;
13683;SDS011;6914;53.552;9.908;2023-04-01T16:50:43;12.57;;;7.10;;
13683;SDS011;6914;53.552;9.908;2023-04-01T16:53:19;18.60;;;7.40;;
13683;SDS011;6914;53.552;9.908;2023-04-01T16:56:02;10.10;;;6.63;;
13683;SDS011;6914;53.552;9.908;2023-04-01T16:58:39;7.03;;;5.33;;
13683;SDS011;6914;53.552;9.908;2023-04-01T17:01:11;10.60;;;7.00;;
13683;SDS011;6914;53.552;9.908;2023-04-01T17:03:42;17.10;;;7.80;;
13683;SDS011;6914;53.552;9.908;2023-04-01T17:06:13;14.87;;;8.00;;
13683;SDS011;6914;53.552;9.908;2023-04-01T17:09:03;13.47;;;7.40;;
13683;SDS011;6914;53.552;9.908;2023-04-01T17:11:45;12.33;;;8.50;;
13683;SDS011;6914;53.552;9.908;2023-04-01T17:14:20;16.67;;;8.13;;
13683;SDS011;6914;53.552;9.908;2023-04-01T17:16:59;11.43;;;7.60;;
13683;SDS011;6914;53.552;9.908;2023-04-01T17:19:43;12.57;;;7.43;;
13683;SDS011;6914;53.552;9.908;2023-04-01T17:22:26;14.03;;;7.43;;
13683;SDS011;6914;53.552;9.908;2023-04-01T17:25:01;12.57;;;6.73;;
13683;SDS011;6914;53.552;9.908;2023-04-01T17:27:48;11.40;;;7.33;;